Latest Weather Observations for Mullion

IDN60901

Issued at 6:31 pm EDT Tuesday 10 December 2019 (issued every 10 minutes, with the page automatically refreshed every 10 minutes)

About weather observations | Map of Canberra area stations | Latest observations for Canberra area | Other Formats
Station Details ID: 250070 Name: MULLION (PCS) Lat: -35.11 Lon: 148.85 Height: 750.0 m

Portable automatic weather stations (PAWS) are operated by other organisations, such as Fire and Emergency Services, and are included here by agreement. Portable stations may be deployed to a location for a short period and their location may be subject to change without notice. Wind observations from these stations are provided from heights of either three (3) or ten (10) metres above ground level (AGL).

Data from the previous 72 hours. | See also: Recent months for locations in Aust Capital Territory
Date/Time
EDT
Temp
°C
App
Temp
°C
Dew
Point
°C
Rel
Hum
%
Delta-T
°C
Wind Press
QNH
hPa
Press
MSL
hPa
Rain since
9am
mm
Dir  Spd
km/h
Gust
km/h
Spd
kts
Gust
kts
10/06:20pm 33.0 - - - - WNW 33 39 18 21 1014.5 - 0.0
10/06:10pm 32.5 21.1 -1.8 11 16.7 WNW 48 57 26 31 1014.1 - 0.0
10/06:00pm 33.0 23.0 2.1 14 16.1 WNW 44 52 24 28 1014.2 - 0.0
10/05:50pm 32.9 - - - - WNW 52 59 28 32 1014.1 - 0.0
10/05:40pm 33.0 20.8 0.1 12 16.6 WNW 54 57 29 31 1013.8 - 0.0
10/05:30pm 33.1 21.5 -0.7 11 16.9 WNW 50 61 27 33 1014.0 - 0.0
10/05:20pm 33.2 21.0 0.5 12 16.7 WNW 54 61 29 33 1014.0 - 0.0
10/05:10pm 33.6 22.5 -0.1 11 17.0 W 48 56 26 30 1013.7 - 0.0
10/05:00pm 33.5 21.5 -0.8 11 17.1 W 52 61 28 33 1014.1 - 0.0
10/04:50pm 33.5 20.8 -0.5 11 17.1 WNW 56 63 30 34 1013.8 - 0.0
10/04:40pm 34.0 23.6 -1.9 10 17.7 WNW 43 57 23 31 1014.2 - 0.0
10/04:30pm 33.8 - - - - WNW 48 63 26 34 1013.6 - 0.0
10/04:20pm 33.9 21.7 -2.8 9 17.8 WNW 52 65 28 35 1014.0 - 0.0
10/04:10pm 33.9 20.7 -3.2 9 17.9 W 57 67 31 36 1014.0 - 0.0
10/04:00pm 34.0 21.5 -5.6 7 18.4 WNW 52 61 28 33 1013.6 - 0.0
10/03:50pm 34.6 24.2 -5.2 7 18.6 WNW 41 48 22 26 1014.4 - 0.0
10/03:40pm 33.7 19.6 -4.4 8 18.0 WNW 61 67 33 36 1014.2 - 0.0
10/03:30pm 34.3 22.1 -5.5 7 18.5 W 50 59 27 32 1014.2 - 0.0
10/03:20pm 34.3 24.3 -4.9 8 18.4 WNW 39 54 21 29 1014.5 - 0.0
10/03:10pm 34.0 23.1 -4.4 8 18.2 WNW 44 52 24 28 1014.3 - 0.0
10/03:00pm 33.9 20.5 -4.7 8 18.1 WNW 57 63 31 34 1014.4 - 0.0
10/02:50pm 33.9 20.9 -5.9 7 18.3 W 54 65 29 35 1014.2 - 0.0
10/02:40pm 33.7 21.5 -5.9 7 18.2 WNW 50 59 27 32 1014.6 - 0.0
10/02:30pm 33.8 22.0 -6.2 7 18.3 WNW 48 65 26 35 1014.7 - 0.0
10/02:20pm 33.7 20.6 -7.0 7 18.4 W 54 63 29 34 1014.9 - 0.0
10/02:10pm 34.0 21.6 -7.6 6 18.7 W 50 57 27 31 1014.9 - 0.0
10/02:00pm 34.0 22.4 -7.6 6 18.7 WNW 46 50 25 27 1015.1 - 0.0
10/01:50pm 34.5 24.6 -7.2 6 18.9 WNW 37 44 20 24 1015.3 - 0.0
10/01:40pm 34.3 23.7 -7.5 6 18.8 WNW 41 52 22 28 1015.3 - 0.0
10/01:30pm 34.0 22.7 -8.2 6 18.7 WNW 44 54 24 29 1015.4 - 0.0
10/01:20pm 33.6 20.8 -7.9 6 18.5 NW 52 57 28 31 1015.2 - 0.0
10/01:10pm 33.7 22.4 -8.6 6 18.6 WNW 44 56 24 30 1015.8 - 0.0
10/01:00pm 34.0 23.6 -8.8 6 18.8 WNW 39 48 21 26 1015.9 - 0.0
10/12:50pm 33.8 24.2 -8.2 6 18.6 WNW 35 43 19 23 1016.0 - 0.0
10/12:40pm 33.7 23.8 -7.7 6 18.5 NW 37 43 20 23 1016.1 - 0.0
10/12:30pm 33.0 22.4 -7.6 7 18.1 NW 41 52 22 28 1016.0 - 0.0
10/12:20pm 32.6 20.3 -7.4 7 17.8 NW 50 56 27 30 1015.8 - 0.0
10/12:10pm 32.7 22.6 -6.2 8 17.7 NW 39 44 21 24 1015.9 - 0.0
10/12:00pm 32.5 23.6 -4.9 9 17.3 NW 33 41 18 22 1016.1 - 0.0
10/11:50am 32.1 22.6 -3.6 10 16.9 NW 37 44 20 24 1016.5 - 0.0
10/11:40am 31.4 20.9 -2.7 11 16.3 NW 43 50 23 27 1016.6 - 0.0
10/11:30am 31.3 22.4 -1.7 12 16.0 NW 35 41 19 22 1016.9 - 0.0
10/11:20am 30.7 22.6 0.9 15 15.0 NNW 33 39 18 21 1016.9 - 0.0
10/11:10am 30.0 22.2 1.8 16 14.4 NW 32 37 17 20 1017.0 - 0.0
10/11:00am 29.4 22.2 2.9 18 13.7 NW 30 35 16 19 1017.1 - 0.0
10/10:50am 28.8 22.8 3.3 19 13.3 NW 24 30 13 16 1017.1 - 0.0
10/10:40am 28.0 22.9 4.3 22 12.5 NNW 20 24 11 13 1017.1 - 0.0
10/10:30am 27.4 22.5 4.3 22 12.1 NNW 19 22 10 12 1017.3 - 0.0
10/10:20am 27.1 22.1 4.4 23 11.9 NNW 20 20 11 11 1017.3 - 0.0
10/10:10am 26.9 22.4 4.0 23 11.9 NW 17 19 9 10 1017.4 - 0.0
10/10:00am 27.2 23.5 4.7 23 11.9 NW 13 17 7 9 1017.6 - 0.0
10/09:50am 27.2 24.1 3.6 22 12.2 NNW 9 13 5 7 1017.6 - 0.0
10/09:40am 27.2 24.6 4.2 23 12.0 N 7 9 4 5 1017.8 - 0.0
10/09:30am 27.4 25.1 5.0 24 11.9 N 6 7 3 4 1017.8 - 0.0
10/09:20am 27.3 25.4 4.7 23 11.9 N 4 6 2 3 1017.8 - 0.0
10/09:10am 26.9 25.6 4.3 23 11.8 CALM 0 2 0 1 1017.8 - 0.0
10/09:00am 26.1 24.5 4.7 25 11.2 N 2 6 1 3 1017.8 - 0.0
10/08:50am 25.3 23.5 5.6 28 10.4 NNW 4 6 2 3 1017.8 - 0.0
10/08:40am 25.5 24.0 5.2 27 10.7 N 2 6 1 3 1017.8 - 0.0
10/08:30am 25.3 23.4 5.0 27 10.6 ENE 4 6 2 3 1017.8 - 0.0
10/08:20am 25.3 23.8 5.1 27 10.6 ENE 2 4 1 2 1017.7 - 0.0
10/08:10am 24.6 22.5 4.1 26 10.5 E 4 4 2 2 1017.7 - 0.0
10/08:00am 23.6 21.6 4.5 29 9.8 ESE 4 6 2 3 1017.7 - 0.0
10/07:50am 23.3 21.3 4.4 29 9.7 SE 4 4 2 2 1017.6 - 0.0
10/07:40am 22.7 20.7 4.2 30 9.4 SE 4 6 2 3 1017.5 - 0.0
10/07:30am 21.4 20.0 8.7 44 7.0 SE 6 7 3 4 1017.3 - 0.0
10/07:20am 21.3 - - - - ESE 6 7 3 4 1017.3 - 0.0
10/07:10am 22.3 20.4 6.8 36 8.2 E 6 7 3 4 1017.3 - 0.0
10/07:00am 22.8 20.7 4.0 29 9.5 E 4 4 2 2 1017.2 - 0.0
10/06:50am 22.7 20.6 4.1 29 9.4 E 4 6 2 3 1017.2 - 0.0
10/06:40am 22.4 26.6 22.4 100 0.0 ESE 4 6 2 3 1017.1 - 0.0
10/06:30am 22.5 20.3 3.4 28 9.6 E 4 6 2 3 1017.1 - 0.0
10/06:20am 22.7 20.9 3.6 28 9.6 E 2 4 1 2 1017.0 - 0.0
10/06:10am 22.8 21.0 3.7 28 9.6 SSE 2 6 1 3 1017.0 - 0.0
10/06:00am 22.5 20.6 3.1 28 9.7 W 2 4 1 2 1017.0 - 0.0
10/05:50am 22.3 20.5 3.4 29 9.4 SW 2 4 1 2 1016.9 - 0.0
10/05:40am 22.5 20.3 3.3 28 9.6 SSW 4 6 2 3 1016.9 - 0.0
10/05:30am 22.6 18.1 -25.9 3 14.0 SW 4 6 2 3 1016.9 - 0.0
10/05:20am 23.1 21.0 3.8 28 9.8 SW 4 4 2 2 1016.8 - 0.0
10/05:10am 23.8 - - - - WSW 6 7 3 4 1016.8 - 0.0
10/05:00am 24.5 21.7 3.0 24 10.8 W 7 9 4 5 1016.8 - 0.0
10/04:50am 24.5 19.3 -17.3 5 14.5 W 9 9 5 5 1016.8 - 0.0
10/04:40am 24.5 - - - - W 9 11 5 6 1016.7 - 0.0
10/04:30am 24.5 21.0 1.3 22 11.3 W 9 9 5 5 1016.7 - 0.0
10/04:20am 24.5 21.7 2.9 24 10.9 WNW 7 9 4 5 1016.7 - 0.0
10/04:10am 24.4 21.5 2.8 24 10.8 W 7 9 4 5 1016.8 - 0.0
10/04:00am 24.4 - - - - W 7 9 4 5 1016.8 - 0.0
10/03:50am 24.4 21.7 2.7 24 10.9 WNW 6 7 3 4 1016.8 - 0.0
10/03:40am 24.2 21.4 2.3 24 10.9 WNW 6 7 3 4 1016.9 - 0.0
10/03:30am 23.6 20.6 2.1 24 10.6 WNW 7 7 4 4 1017.1 - 0.0
10/03:20am 23.5 20.6 2.5 25 10.4 NNW 7 7 4 4 1017.2 - 0.0
10/03:10am 23.6 20.7 1.4 23 10.8 N 6 7 3 4 1017.2 - 0.0
10/03:00am 24.7 22.2 3.5 25 10.8 NW 6 6 3 3 1017.2 - 0.0
10/02:50am 25.1 22.2 2.5 23 11.3 WNW 7 7 4 4 1017.2 - 0.0
10/02:40am 25.1 21.8 2.4 23 11.3 WNW 9 9 5 5 1017.3 - 0.0
10/02:30am 25.1 21.8 2.5 23 11.3 WNW 9 11 5 6 1017.5 - 0.0
10/02:20am 25.0 - - - - W 9 11 5 6 1017.6 - 0.0
10/02:10am 25.0 22.0 2.2 22 11.3 WNW 7 9 4 5 1017.6 - 0.0
10/02:00am 24.9 22.4 1.7 22 11.4 WNW 4 6 2 3 1017.7 - 0.0
10/01:50am 25.0 22.7 2.5 23 11.3 WNW 4 4 2 2 1017.8 - 0.0
10/01:40am 25.3 22.6 2.5 22 11.4 WNW 6 6 3 3 1017.9 - 0.0
10/01:30am 25.5 22.8 2.5 22 11.5 WNW 6 6 3 3 1018.0 - 0.0
10/01:20am 25.6 22.9 2.6 22 11.6 WNW 6 7 3 4 1018.1 - 0.0
10/01:10am 25.6 22.6 2.2 22 11.7 WNW 7 7 4 4 1018.2 - 0.0
10/01:00am 25.7 22.7 2.3 22 11.7 W 7 7 4 4 1018.3 - 0.0
10/12:50am 25.9 23.1 2.2 21 11.9 WNW 6 6 3 3 1018.4 - 0.0
10/12:40am 26.1 23.4 2.4 21 11.9 WNW 6 7 3 4 1018.4 - 0.0
10/12:30am 26.1 23.7 2.4 21 11.9 N 4 6 2 3 1018.5 - 0.0
10/12:20am 26.1 23.8 2.7 22 11.8 N 4 4 2 2 1018.6 - 0.0
10/12:10am 26.1 23.8 2.9 22 11.8 N 4 4 2 2 1018.7 - 0.0
10/12:00am 26.0 24.5 2.8 22 11.7 CALM 0 4 0 2 1018.7 - 0.0
 
Date/Time
EDT
Temp
°C
App
Temp
°C
Dew
Point
°C
Rel
Hum
%
Delta-T
°C
Wind Press
QNH
hPa
Press
MSL
hPa
Rain since
9am
mm
Dir  Spd
km/h
Gust
km/h
Spd
kts
Gust
kts
09/11:50pm 26.1 24.2 2.9 22 11.8 NE 2 4 1 2 1018.7 - 0.0
09/11:40pm 26.3 24.7 2.6 21 12.0 CALM 0 2 0 1 1018.8 - 0.0
09/11:30pm 26.8 24.5 2.5 20 12.3 NE 4 4 2 2 1018.9 - 0.0
09/11:20pm 26.8 25.2 2.4 20 12.3 CALM 0 0 0 0 1018.9 - 0.0
09/11:10pm 27.4 25.7 1.8 19 12.9 CALM 0 0 0 0 1019.0 - 0.0
09/11:00pm 27.7 25.2 1.5 18 13.1 SW 4 7 2 4 1019.0 - 0.0
09/10:50pm 27.7 24.8 1.3 18 13.2 SW 6 9 3 5 1019.1 - 0.0
09/10:40pm 27.8 24.0 1.5 18 13.2 SSW 11 13 6 7 1019.1 - 0.0
09/10:30pm 27.8 23.2 1.6 18 13.1 SW 15 17 8 9 1019.0 - 0.0
09/10:20pm 27.7 23.1 1.4 18 13.1 SSW 15 17 8 9 1019.0 - 0.0
09/10:10pm 27.6 23.1 2.4 19 12.8 SSW 15 17 8 9 1019.0 - 0.0
09/10:00pm 27.6 23.2 2.8 20 12.7 SSW 15 17 8 9 1019.0 - 0.0
09/09:50pm 27.8 23.4 2.5 19 12.9 SSW 15 17 8 9 1019.0 - 0.0
09/09:40pm 27.7 22.9 2.7 20 12.8 SSW 17 17 9 9 1019.0 - 0.0
09/09:30pm 27.8 23.1 3.0 20 12.7 SSW 17 17 9 9 1018.9 - 0.0
09/09:20pm 27.9 23.2 3.0 20 12.8 SSW 17 17 9 9 1018.9 - 0.0
09/09:10pm 27.9 23.6 3.3 20 12.7 SSW 15 17 8 9 1018.9 - 0.0
09/09:00pm 28.2 23.1 3.2 20 12.9 SSW 19 19 10 10 1018.8 - 0.0
09/08:50pm 28.5 24.2 3.3 20 13.1 SW 15 17 8 9 1018.9 - 0.0
09/08:40pm 28.6 23.9 3.1 19 13.2 SW 17 20 9 11 1018.8 - 0.0
09/08:30pm 28.5 24.5 2.8 19 13.2 SSW 13 15 7 8 1018.7 - 0.0
09/08:20pm 28.6 25.0 2.7 19 13.3 SSW 11 13 6 7 1018.7 - 0.0
09/08:10pm 28.6 24.9 2.5 18 13.4 SW 11 13 6 7 1018.7 - 0.0
09/08:00pm 28.6 24.6 2.6 19 13.3 WSW 13 15 7 8 1018.6 - 0.0
09/07:50pm 28.8 24.4 2.6 18 13.5 WSW 15 15 8 8 1018.6 - 0.0
09/07:40pm 29.1 24.3 2.4 18 13.7 W 17 19 9 10 1018.5 - 0.0
09/07:30pm 29.2 24.4 2.6 18 13.7 W 17 19 9 10 1018.6 - 0.0
09/07:20pm 29.2 23.8 2.4 18 13.7 W 20 24 11 13 1018.5 - 0.0
09/07:10pm 29.4 22.9 2.5 18 13.8 W 26 28 14 15 1018.3 - 0.0
09/07:00pm 29.5 23.7 2.3 17 14.0 W 22 24 12 13 1018.3 - 0.0
09/06:50pm 29.5 22.5 2.1 17 14.0 W 28 32 15 17 1018.3 - 0.0
09/06:40pm 29.6 22.6 2.2 17 14.0 W 28 32 15 17 1018.1 - 0.0
09/06:30pm 29.7 22.4 2.3 17 14.1 W 30 37 16 20 1018.0 - 0.0
09/06:20pm 30.1 23.2 2.4 17 14.3 W 28 33 15 18 1017.9 - 0.0
09/06:10pm 30.0 22.4 2.7 17 14.1 W 32 35 17 19 1018.0 - 0.0
09/06:00pm 29.9 22.8 3.4 18 13.9 W 30 33 16 18 1018.0 - 0.0
09/05:50pm 29.9 22.5 4.0 19 13.7 W 32 33 17 18 1017.9 - 0.0
09/05:40pm 30.1 22.8 4.3 19 13.7 W 32 35 17 19 1018.0 - 0.0
09/05:30pm 30.2 22.6 4.1 19 13.9 W 33 39 18 21 1018.1 - 0.0
09/05:20pm 30.4 22.8 3.9 18 14.0 W 33 37 18 20 1018.1 - 0.0
09/05:10pm 30.5 22.5 3.6 18 14.2 W 35 44 19 24 1018.0 - 0.0
09/05:00pm 30.8 22.3 3.3 17 14.5 W 37 43 20 23 1018.0 - 0.0
09/04:50pm 31.7 25.6 2.9 16 15.1 W 24 30 13 16 1018.2 - 0.0
09/04:40pm 30.9 22.6 2.4 16 14.8 WNW 35 46 19 25 1018.2 - 0.0
09/04:30pm 31.2 22.7 1.0 14 15.3 WNW 35 39 19 21 1018.2 - 0.0
09/04:20pm 31.2 22.8 1.8 15 15.1 WNW 35 37 19 20 1018.4 - 0.0
09/04:10pm 31.0 23.2 2.6 16 14.8 WNW 33 39 18 21 1018.6 - 0.0
09/04:00pm 31.1 23.7 1.7 15 15.1 WNW 30 37 16 20 1018.6 - 0.0
09/03:50pm 31.1 23.2 2.1 15 15.0 WNW 33 41 18 22 1018.7 - 0.0
09/03:40pm 30.8 21.9 0.7 14 15.2 W 37 43 20 23 1018.6 - 0.0
09/03:30pm 30.9 22.3 0.2 14 15.3 W 35 39 19 21 1019.0 - 0.0
09/03:20pm 30.8 22.5 -0.3 13 15.4 WNW 33 41 18 22 1019.0 - 0.0
09/03:10pm 30.5 21.8 2.0 16 14.6 WNW 37 41 20 22 1019.0 - 0.0
09/03:00pm 30.5 22.4 1.1 15 14.9 NW 33 41 18 22 1019.1 - 0.0
09/02:50pm 30.5 23.1 4.0 18 14.1 WNW 32 39 17 21 1019.4 - 0.0
09/02:40pm 29.9 22.4 3.7 19 13.8 NW 32 37 17 20 1019.4 - 0.0
09/02:30pm 30.0 22.8 5.1 20 13.4 NW 32 37 17 20 1019.7 - 0.0
09/02:20pm 30.0 22.9 5.7 21 13.2 NW 32 41 17 22 1019.7 - 0.0
09/02:10pm 29.6 22.4 5.1 21 13.2 NW 32 37 17 20 1019.9 - 0.0
09/02:00pm 29.2 22.1 5.7 22 12.7 NW 32 39 17 21 1020.0 - 0.0
09/01:50pm 29.3 22.3 5.9 22 12.7 WNW 32 43 17 23 1020.4 - 0.0
09/01:40pm 28.4 21.5 6.6 25 12.0 WNW 32 44 17 24 1020.6 - 0.0
09/01:30pm 28.4 21.0 6.7 25 11.9 NW 35 41 19 22 1020.8 - 0.0
09/01:20pm 28.4 22.1 7.5 26 11.6 NW 30 37 16 20 1021.0 - 0.0
09/01:10pm 27.5 20.7 7.7 28 11.0 NW 33 41 18 22 1020.8 - 0.0
09/01:00pm 27.6 19.5 6.8 26 11.4 NNW 39 43 21 23 1020.8 - 0.0
09/12:50pm 27.1 19.2 7.7 29 10.8 NW 39 43 21 23 1021.1 - 0.0
09/12:40pm 26.9 20.1 7.5 29 10.7 NNW 33 43 18 23 1021.1 - 0.0
09/12:30pm 26.4 21.2 10.1 36 9.4 NNW 28 33 15 18 1021.5 - 0.0
09/12:20pm 25.7 21.2 10.1 37 8.9 NNW 24 30 13 16 1021.7 - 0.0
09/12:10pm 25.6 21.2 10.5 38 8.7 NNW 24 28 13 15 1021.8 - 0.0
09/12:00pm 25.3 21.7 10.6 39 8.5 NNW 20 26 11 14 1022.0 - 0.0
09/11:50am 25.0 22.3 10.5 40 8.3 NW 15 24 8 13 1022.2 - 0.0
09/11:40am 24.9 22.5 11.5 43 7.8 NW 15 19 8 10 1022.2 - 0.0
09/11:30am 24.7 23.5 11.7 44 7.6 NW 9 13 5 7 1022.3 - 0.0
09/11:20am 25.2 24.7 12.1 44 7.7 WNW 6 13 3 7 1022.4 - 0.0
09/11:10am 24.5 24.0 12.1 46 7.3 N 6 9 3 5 1022.5 - 0.0
09/11:00am 24.1 23.3 11.8 46 7.2 NE 7 11 4 6 1022.5 - 0.0
09/10:50am 23.7 22.6 12.1 48 6.8 E 9 13 5 7 1022.5 - 0.0
09/10:40am 22.4 21.2 11.6 50 6.3 SE 9 15 5 8 1022.6 - 0.0
09/10:30am 21.2 19.8 12.3 57 5.2 SE 11 17 6 9 1022.7 - 0.0
09/10:20am 20.9 19.5 12.2 57 5.1 ESE 11 17 6 9 1022.7 - 0.0
09/10:10am 20.4 18.3 12.3 59 4.7 ESE 15 19 8 10 1022.7 - 0.0
09/10:00am 20.0 17.9 12.3 61 4.5 SE 15 19 8 10 1022.9 - 0.0
09/09:50am 20.2 18.1 12.3 60 4.6 ESE 15 20 8 11 1022.9 - 0.0
09/09:40am 19.5 17.0 12.4 63 4.1 SE 17 20 9 11 1023.0 - 0.0
09/09:30am 18.9 16.4 12.3 65 3.8 SE 17 24 9 13 1023.1 - 0.0
09/09:20am 18.6 15.1 12.3 67 3.6 ESE 22 24 12 13 1023.0 - 0.0
09/09:10am 18.5 15.3 12.0 66 3.7 ESE 20 22 11 12 1023.0 - 0.0
09/09:00am 17.8 14.3 12.2 70 3.2 SE 22 24 12 13 1023.2 - 0.0
09/08:50am 17.8 14.4 12.5 71 3.1 SE 22 26 12 14 1023.1 - 0.0
09/08:40am 17.5 13.6 12.0 70 3.1 SE 24 28 13 15 1023.3 - 0.0
09/08:30am 17.2 13.3 12.0 71 3.0 ESE 24 28 13 15 1023.1 - 0.0
09/08:20am 17.1 13.2 12.2 73 2.8 ESE 24 26 13 14 1023.3 - 0.0
09/08:10am 16.9 12.3 12.3 74 2.6 SE 28 32 15 17 1023.2 - 0.0
09/08:00am 16.5 11.9 12.2 76 2.4 SE 28 30 15 16 1023.1 - 0.0
09/07:50am 16.3 11.7 12.3 77 2.3 SE 28 30 15 16 1023.2 - 0.0
09/07:40am 16.1 10.7 12.2 77 2.2 SE 32 32 17 17 1023.0 - 0.0
09/07:30am 15.9 10.3 12.2 78 2.1 SE 33 35 18 19 1023.0 - 0.0
09/07:20am 15.8 10.4 12.3 80 2.0 SE 32 33 17 18 1022.8 - 0.0
09/07:10am 15.7 11.1 12.3 80 1.9 SE 28 30 15 16 1023.0 - 0.0
09/07:00am 15.4 10.8 12.2 81 1.8 SE 28 30 15 16 1022.9 - 0.0
09/06:50am 15.1 10.5 12.2 83 1.6 SE 28 30 15 16 1022.8 - 0.0
09/06:40am 14.9 9.9 12.1 83 1.6 SE 30 32 16 17 1022.7 - 0.0
09/06:30am 14.8 9.8 12.1 84 1.5 SE 30 33 16 18 1022.7 - 0.0
09/06:20am 14.9 9.9 12.2 84 1.5 SE 30 35 16 19 1022.6 - 0.0
09/06:10am 14.7 9.7 12.1 84 1.5 SE 30 32 16 17 1022.5 - 0.0
09/06:00am 14.7 9.7 12.1 84 1.5 SE 30 32 16 17 1022.6 - 0.0
09/05:50am 14.8 9.8 12.2 84 1.5 SE 30 32 16 17 1022.3 - 0.0
09/05:40am 14.8 9.8 12.2 84 1.5 SE 30 30 16 16 1022.2 - 0.0
09/05:30am 14.9 10.3 12.3 84 1.5 SE 28 30 15 16 1022.2 - 0.0
09/05:20am 15.0 10.4 12.3 84 1.5 SE 28 30 15 16 1022.3 - 0.0
09/05:10am 15.1 9.7 12.3 83 1.6 SE 32 33 17 18 1022.0 - 0.0
09/05:00am 15.0 10.0 12.2 83 1.6 SE 30 33 16 18 1022.1 - 0.0
09/04:50am 15.1 9.7 12.2 83 1.6 SE 32 33 17 18 1022.0 - 0.0
09/04:40am 15.1 9.6 12.3 83 1.6 SE 33 33 18 18 1021.7 - 0.0
09/04:30am 15.1 9.5 12.2 83 1.6 SE 33 33 18 18 1021.8 - 0.0
09/04:20am 15.1 9.6 12.3 83 1.6 SE 33 35 18 19 1021.7 - 0.0
09/04:10am 15.1 9.6 12.4 84 1.5 SE 33 35 18 19 1021.8 - 0.0
09/04:00am 15.2 9.9 12.4 83 1.6 SE 32 33 17 18 1021.9 - 0.0
09/03:50am 15.1 9.8 12.4 84 1.5 SE 32 33 17 18 1022.0 - 0.0
09/03:40am 15.2 9.7 12.4 83 1.6 SE 33 35 18 19 1022.0 - 0.0
09/03:30am 15.2 9.3 12.5 84 1.5 SE 35 37 19 20 1022.0 - 0.0
09/03:20am 15.3 9.4 12.5 83 1.6 SE 35 37 19 20 1021.8 - 0.0
09/03:10am 15.3 9.8 12.5 83 1.6 SE 33 37 18 20 1022.1 - 0.0
09/03:00am 15.3 9.4 12.5 83 1.6 SE 35 39 19 21 1022.1 - 0.0
09/02:50am 15.3 9.1 12.5 83 1.6 SE 37 39 20 21 1022.0 - 0.0
09/02:40am 15.3 9.8 12.5 83 1.6 SE 33 35 18 19 1022.2 - 0.0
09/02:30am 15.2 9.7 12.6 84 1.5 SE 33 37 18 20 1022.3 - 0.0
09/02:20am 15.5 9.7 12.6 83 1.7 SE 35 37 19 20 1022.3 - 0.0
09/02:10am 15.5 9.3 12.6 83 1.7 SE 37 39 20 21 1022.3 - 0.0
09/02:00am 15.5 9.7 12.6 83 1.7 SE 35 39 19 21 1022.4 - 0.0
09/01:50am 15.5 10.0 12.5 82 1.7 SE 33 35 18 19 1022.5 - 0.0
09/01:40am 15.5 9.6 12.5 82 1.7 SE 35 37 19 20 1022.5 - 0.0
09/01:30am 15.5 9.6 12.5 82 1.7 SE 35 37 19 20 1022.5 - 0.0
09/01:20am 15.5 9.6 12.5 82 1.7 SE 35 35 19 19 1022.5 - 0.0
09/01:10am 15.5 9.6 12.4 82 1.8 SE 35 37 19 20 1022.6 - 0.0
09/01:00am 15.5 9.3 12.5 82 1.7 SE 37 39 20 21 1022.5 - 0.0
09/12:50am 15.5 9.6 12.4 82 1.8 SE 35 37 19 20 1022.9 - 0.0
09/12:40am 15.5 9.6 12.4 82 1.8 SE 35 37 19 20 1022.9 - 0.0
09/12:30am 15.6 8.9 12.4 81 1.8 SE 39 41 21 22 1022.9 - 0.0
09/12:20am 15.6 8.9 12.4 81 1.8 SE 39 41 21 22 1022.7 - 0.0
09/12:10am 15.6 9.4 12.5 82 1.8 SE 37 41 20 22 1022.9 - 0.0
09/12:00am 15.7 9.0 12.4 81 1.9 SE 39 41 21 22 1023.0 - 0.0
 
Date/Time
EDT
Temp
°C
App
Temp
°C
Dew
Point
°C
Rel
Hum
%
Delta-T
°C
Wind Press
QNH
hPa
Press
MSL
hPa
Rain since
9am
mm
Dir  Spd
km/h
Gust
km/h
Spd
kts
Gust
kts
08/11:50pm 15.8 9.2 12.5 81 1.9 SE 39 41 21 22 1022.9 - 0.0
08/11:40pm 15.8 8.8 12.6 81 1.8 SE 41 43 22 23 1023.0 - 0.0
08/11:30pm 15.8 8.5 12.7 82 1.8 SE 43 44 23 24 1022.7 - 0.0
08/11:20pm 15.7 8.7 12.6 82 1.8 SSE 41 43 22 23 1022.9 - 0.0
08/11:10pm 15.7 8.7 12.6 82 1.8 SSE 41 44 22 24 1023.0 - 0.0
08/11:00pm 15.8 8.8 12.5 81 1.9 SSE 41 44 22 24 1022.9 - 0.0
08/10:50pm 15.7 8.7 12.5 81 1.8 SSE 41 43 22 23 1022.8 - 0.0
08/10:40pm 15.6 9.0 12.5 82 1.8 SE 39 43 21 23 1022.9 - 0.0
08/10:30pm 15.5 8.9 12.5 82 1.7 SSE 39 41 21 22 1022.9 - 0.0
08/10:20pm 15.6 9.4 12.5 82 1.8 SSE 37 39 20 21 1023.0 - 0.0
08/10:10pm 15.7 9.1 12.5 81 1.8 SSE 39 41 21 22 1022.9 - 0.0
08/10:00pm 15.9 9.3 12.5 80 1.9 SE 39 41 21 22 1022.6 - 0.0
08/09:50pm 16.1 9.8 12.4 79 2.1 SSE 37 39 20 21 1022.7 - 0.0
08/09:40pm 16.4 9.7 12.4 77 2.3 SSE 39 41 21 22 1022.6 - 0.0
08/09:30pm 16.9 9.8 12.3 74 2.6 SE 41 44 22 24 1022.2 - 0.0
08/09:20pm 17.1 9.7 12.3 73 2.7 SE 43 44 23 24 1022.0 - 0.0
08/09:10pm 17.4 10.0 12.4 72 2.9 SE 43 44 23 24 1021.6 - 0.0
08/09:00pm 17.9 10.5 12.4 70 3.2 SE 43 44 23 24 1021.4 - 0.0
08/08:50pm 18.6 11.9 12.3 67 3.6 SE 39 44 21 24 1021.7 - 0.0
08/08:40pm 19.0 11.9 12.1 64 4.0 SE 41 43 22 23 1021.1 - 0.0
08/08:30pm 19.6 12.1 12.2 62 4.3 SE 43 44 23 24 1020.8 - 0.0
08/08:20pm 20.0 13.3 12.2 60 4.5 SE 39 44 21 24 1020.8 - 0.0
08/08:10pm 21.0 15.0 12.1 56 5.2 ESE 35 39 19 21 1020.7 - 0.0
08/08:00pm 21.3 15.8 11.9 55 5.4 ESE 32 39 17 21 1020.2 - 0.0
08/07:50pm 21.6 16.1 11.9 54 5.6 ESE 32 35 17 19 1020.4 - 0.0
08/07:40pm 22.1 17.0 11.9 52 5.9 ESE 30 32 16 17 1020.1 - 0.0
08/07:30pm 22.6 16.9 11.7 50 6.3 E 33 41 18 22 1019.9 - 0.0
08/07:20pm 23.5 17.4 11.8 47 6.8 E 35 41 19 22 1019.6 - 0.0
08/07:10pm 24.2 18.3 11.2 44 7.5 E 33 37 18 20 1019.5 - 0.0
08/07:00pm 24.8 18.8 10.9 41 8.0 E 33 37 18 20 1019.3 - 0.0
08/06:50pm 25.7 20.6 10.7 39 8.7 ENE 28 32 15 17 1019.0 - 0.0
08/06:40pm 27.5 24.8 10.3 34 10.0 N 15 22 8 12 1019.1 - 0.0
08/06:30pm 28.2 24.8 4.0 21 12.7 NNW 11 13 6 7 1019.0 - 0.0
08/06:20pm 28.3 24.9 4.2 21 12.7 N 11 17 6 9 1018.9 - 0.0
08/06:10pm 28.6 26.1 4.0 20 12.9 WNW 6 9 3 5 1019.0 - 0.0
08/06:00pm 28.0 23.9 4.1 21 12.5 W 15 20 8 11 1018.9 - 0.0
08/05:50pm 28.4 24.3 4.2 21 12.7 NW 15 19 8 10 1018.8 - 0.0
08/05:40pm 28.6 25.2 3.9 20 13.0 NE 11 17 6 9 1018.8 - 0.0
08/05:30pm 28.4 25.9 4.0 21 12.8 NW 6 9 3 5 1018.8 - 0.0
08/05:20pm 27.8 23.7 4.1 22 12.4 WNW 15 19 8 10 1018.8 - 0.0
08/05:10pm 27.9 23.0 4.2 22 12.4 NNW 19 22 10 12 1018.7 - 0.0
08/05:00pm 28.0 24.6 4.2 22 12.5 NNE 11 19 6 10 1018.8 - 0.0
08/04:50pm 28.0 25.0 4.3 22 12.5 N 9 19 5 10 1018.9 - 0.0
08/04:40pm 28.6 25.7 4.7 22 12.7 N 9 13 5 7 1018.9 - 0.0
08/04:30pm 28.1 25.2 4.7 22 12.4 NNW 9 15 5 8 1019.0 - 0.0
08/04:20pm 28.3 24.0 3.3 20 13.0 NNE 15 19 8 10 1019.0 - 0.0
08/04:10pm 28.0 23.3 3.0 20 12.9 ENE 17 24 9 13 1019.0 - 0.0
08/04:00pm 27.7 22.7 3.5 21 12.5 ENE 19 22 10 12 1019.0 - 0.0
08/03:50pm 27.4 22.2 3.7 22 12.3 NE 20 26 11 14 1019.2 - 0.0
08/03:40pm 27.9 23.8 4.1 21 12.5 NNE 15 22 8 12 1019.3 - 0.0
08/03:30pm 27.2 23.1 4.1 22 12.1 NNE 15 19 8 10 1019.4 - 0.0
08/03:20pm 28.0 23.6 4.7 22 12.3 NE 17 22 9 12 1019.6 - 0.0
08/03:10pm 27.8 23.8 5.0 23 12.1 NE 15 20 8 11 1019.5 - 0.0
08/03:00pm 27.4 24.6 5.1 24 11.9 NNW 9 13 5 7 1019.5 - 0.0
08/02:50pm 27.8 24.7 5.4 24 12.0 N 11 22 6 12 1019.6 - 0.0
08/02:40pm 27.7 24.9 5.1 23 12.0 N 9 13 5 7 1019.7 - 0.0
08/02:30pm 25.9 22.3 5.1 26 11.0 NE 13 20 7 11 1019.8 - 0.0
08/02:20pm 27.2 24.2 5.9 25 11.5 ENE 11 19 6 10 1019.9 - 0.0
08/02:10pm 27.3 25.0 5.8 25 11.6 N 7 11 4 6 1020.1 - 0.0
08/02:00pm 27.1 24.6 4.9 24 11.7 N 7 15 4 8 1020.1 - 0.0
08/01:50pm 26.8 24.1 5.5 25 11.4 ENE 9 13 5 7 1020.2 - 0.0
08/01:40pm 26.2 23.8 5.2 26 11.1 N 7 11 4 6 1020.3 - 0.0
08/01:30pm 25.6 23.0 5.9 28 10.5 NE 9 17 5 9 1020.4 - 0.0
08/01:20pm 25.3 21.1 5.7 28 10.4 ENE 17 22 9 12 1020.4 - 0.0
08/01:10pm 25.5 21.8 6.4 29 10.3 E 15 20 8 11 1020.5 - 0.0
08/01:00pm 25.6 24.0 6.2 29 10.4 NNE 4 9 2 5 1020.7 - 0.0
08/12:50pm 24.2 21.7 6.4 32 9.5 NNE 9 17 5 9 1020.7 - 0.0
08/12:40pm 24.3 20.8 7.0 33 9.3 ENE 15 22 8 12 1020.7 - 0.0
08/12:30pm 24.5 20.8 6.1 30 9.8 E 15 22 8 12 1020.8 - 0.0
08/12:20pm 23.3 21.1 6.0 32 9.1 E 7 20 4 11 1020.8 - 0.0
08/12:10pm 23.2 19.2 6.8 34 8.8 E 17 22 9 12 1020.7 - 0.0
08/12:00pm 23.1 20.0 7.3 36 8.5 ESE 13 19 7 10 1021.0 - 0.0
08/11:50am 22.7 19.8 8.3 39 7.9 E 13 20 7 11 1021.0 - 0.0
08/11:40am 23.0 20.4 7.9 38 8.2 E 11 17 6 9 1021.1 - 0.0
08/11:30am 22.4 18.7 6.5 35 8.4 ESE 15 20 8 11 1021.2 - 0.0
08/11:20am 21.5 18.0 8.9 44 6.9 ESE 17 24 9 13 1021.2 - 0.0
08/11:10am 21.5 18.0 8.8 44 7.0 ENE 17 20 9 11 1021.2 - 0.0
08/11:00am 20.5 16.9 8.4 45 6.6 E 17 22 9 12 1021.2 - 0.0
08/10:50am 20.8 17.5 9.6 48 6.2 E 17 26 9 14 1021.4 - 0.0
08/10:40am 20.0 17.0 9.3 50 5.9 ESE 15 22 8 12 1021.4 - 0.0
08/10:30am 19.5 16.1 9.3 51 5.6 ESE 17 20 9 11 1021.4 - 0.0
08/10:20am 18.8 15.1 9.3 54 5.2 SE 19 20 10 11 1021.3 - 0.0
08/10:10am 18.7 14.8 9.4 54 5.1 ESE 20 24 11 13 1021.2 - 0.0
08/10:00am 18.1 13.4 9.3 56 4.8 ESE 24 32 13 17 1021.1 - 0.0
08/09:50am 17.7 13.4 9.5 58 4.5 ESE 22 26 12 14 1021.0 - 0.0
08/09:40am 17.6 12.6 9.4 58 4.5 ESE 26 28 14 15 1020.9 - 0.0
08/09:30am 17.1 12.1 9.6 61 4.1 ESE 26 30 14 16 1021.1 - 0.0
08/09:20am 17.2 12.6 9.6 61 4.1 ESE 24 28 13 15 1021.0 - 0.0
08/09:10am 16.4 11.9 10.1 66 3.4 SE 24 28 13 15 1021.0 - 0.0
08/09:00am 16.0 11.9 10.0 67 3.3 SE 22 24 12 13 1021.0 - 0.0
08/08:50am 15.9 11.9 10.5 70 3.0 SE 22 26 12 14 1021.1 - 0.0
08/08:40am 15.8 11.8 10.3 70 3.0 SE 22 24 12 13 1021.1 - 0.0
08/08:30am 15.6 12.0 10.4 71 2.8 SE 20 22 11 12 1021.1 - 0.0
08/08:20am 15.3 11.7 10.4 72 2.7 SE 20 24 11 13 1021.0 - 0.0
08/08:10am 15.3 11.6 10.2 71 2.8 ESE 20 24 11 13 1021.0 - 0.0
08/08:00am 15.0 11.0 10.3 73 2.6 SE 22 26 12 14 1021.1 - 0.0
08/07:50am 15.0 11.0 10.3 73 2.6 SE 22 24 12 13 1021.0 - 0.0
08/07:40am 14.4 10.0 10.5 77 2.1 SE 24 26 13 14 1020.6 - 0.0
08/07:30am 13.9 9.6 10.6 80 1.8 SE 24 26 13 14 1020.6 - 0.0
08/07:20am 13.4 8.9 10.2 81 1.7 SE 24 26 13 14 1020.4 - 0.0
08/07:10am 13.1 8.6 10.2 82 1.6 SE 24 26 13 14 1020.4 - 0.0
08/07:00am 12.8 8.3 10.1 84 1.4 SE 24 26 13 14 1020.3 - 0.0
08/06:50am 12.6 8.1 10.0 84 1.4 SE 24 26 13 14 1020.3 - 0.0
08/06:40am 12.4 8.3 10.0 85 1.3 SE 22 24 12 13 1020.2 - 0.0
08/06:30am 12.5 8.4 10.2 86 1.2 SE 22 22 12 12 1020.2 - 0.0
08/06:20am 12.6 8.5 10.1 85 1.3 SE 22 24 12 13 1020.0 - 0.0
08/06:10am 12.4 7.9 10.1 86 1.2 SE 24 26 13 14 1019.9 - 0.0
08/06:00am 12.3 7.8 10.1 86 1.2 SE 24 26 13 14 1019.8 - 0.0
08/05:50am 12.4 7.5 10.1 86 1.2 SSE 26 28 14 15 1019.6 - 0.0
08/05:40am 12.1 7.2 10.0 87 1.1 SSE 26 28 14 15 1019.5 - 0.0
08/05:30am 12.1 7.2 10.0 87 1.1 SSE 26 28 14 15 1019.4 - 0.0
08/05:20am 12.2 7.3 10.1 87 1.1 SSE 26 28 14 15 1019.2 - 0.0
08/05:10am 12.1 7.2 10.1 87 1.1 SE 26 28 14 15 1019.0 - 0.0
08/05:00am 12.2 7.0 10.2 87 1.1 SE 28 30 15 16 1018.8 - 0.0
08/04:50am 12.2 7.0 10.1 87 1.1 SE 28 30 15 16 1018.8 - 0.0
08/04:40am 12.2 6.6 10.3 88 1.0 SE 30 30 16 16 1018.6 - 0.0
08/04:30am 12.3 6.8 10.5 89 1.0 SE 30 32 16 17 1018.6 - 0.0
08/04:20am 12.5 7.0 10.6 88 1.0 SE 30 32 16 17 1018.4 - 0.0
08/04:10am 12.5 7.4 10.6 88 1.0 SE 28 30 15 16 1018.3 - 0.0
08/04:00am 12.5 6.6 10.5 88 1.1 SE 32 33 17 18 1018.1 - 0.0
08/03:50am 12.4 6.5 10.5 88 1.0 SE 32 33 17 18 1018.2 - 0.0
08/03:40am 12.4 6.3 10.6 89 1.0 SE 33 35 18 19 1018.2 - 0.0
08/03:30am 12.5 6.6 10.6 88 1.0 SE 32 33 17 18 1018.0 - 0.0
08/03:20am 12.6 6.7 10.6 88 1.1 SE 32 33 17 18 1018.1 - 0.0
08/03:10am 12.7 6.9 10.9 89 1.0 SE 32 33 17 18 1018.0 - 0.0
08/03:00am 12.7 7.3 10.9 89 1.0 SE 30 30 16 16 1018.3 - 0.0
08/02:50am 12.8 7.8 11.1 89 0.9 SE 28 30 15 16 1018.3 - 0.0
08/02:40am 12.9 8.4 11.3 90 0.9 SE 26 28 14 15 1018.5 - 0.0
08/02:30am 13.0 8.5 11.4 90 0.9 SE 26 28 14 15 1018.5 - 0.0
08/02:20am 13.2 8.4 11.5 89 0.9 SE 28 28 15 15 1018.5 - 0.0
08/02:10am 13.2 8.8 11.6 90 0.9 SE 26 28 14 15 1018.6 - 0.0
08/02:00am 13.4 9.0 11.6 89 1.0 SE 26 26 14 14 1018.7 - 0.0
08/01:50am 13.5 8.7 11.7 89 1.0 SE 28 28 15 15 1018.7 - 0.0
08/01:40am 13.6 8.4 11.7 88 1.1 SSE 30 30 16 16 1018.6 - 0.0
08/01:30am 13.7 8.2 11.7 88 1.1 SSE 32 33 17 18 1018.6 - 0.0
08/01:20am 13.7 8.0 11.7 88 1.1 SSE 33 33 18 18 1018.7 - 0.0
08/01:10am 13.7 8.0 11.7 88 1.1 SSE 33 35 18 19 1018.6 - 0.0
08/01:00am 13.7 8.2 11.7 88 1.1 SSE 32 33 17 18 1018.5 - 0.0
08/12:50am 13.9 8.3 11.6 86 1.3 SSE 32 33 17 18 1018.4 - 0.0
08/12:40am 14.1 8.4 11.7 85 1.3 SSE 33 35 18 19 1018.4 - 0.0
08/12:30am 14.3 8.6 11.7 84 1.4 SSE 33 33 18 18 1018.4 - 0.0
08/12:20am 14.5 8.3 11.4 82 1.7 SSE 35 35 19 19 1018.4 - 0.0
08/12:10am 14.6 9.3 11.4 81 1.8 SSE 30 35 16 19 1018.3 - 0.0
08/12:00am 14.7 9.9 11.5 81 1.8 SSE 28 30 15 16 1018.5 - 0.0
 
Date/Time
EDT
Temp
°C
App
Temp
°C
Dew
Point
°C
Rel
Hum
%
Delta-T
°C
Wind Press
QNH
hPa
Press
MSL
hPa
Rain since
9am
mm
Dir  Spd
km/h
Gust
km/h
Spd
kts
Gust
kts
07/11:50pm 14.8 9.9 11.4 80 1.9 SSE 28 32 15 17 1018.5 - 0.0
07/11:40pm 15.1 10.8 10.9 76 2.3 S 24 26 13 14 1018.5 - 0.0
07/11:30pm 15.4 11.7 10.1 70 2.9 S 20 22 11 12 1018.5 - 0.0
07/11:20pm 16.5 13.1 10.5 67 3.3 SSE 19 22 10 12 1018.4 - 0.0
07/11:10pm 18.0 14.3 4.3 40 6.8 S 13 17 7 9 1018.4 - 0.0
07/11:00pm 18.4 13.6 2.4 34 7.6 S 17 19 9 10 1018.4 - 0.0
07/10:50pm 19.2 13.7 0.5 28 8.6 SW 19 24 10 13 1018.3 - 0.0
07/10:40pm 19.0 11.7 0.3 28 8.6 WSW 28 32 15 17 1018.0 - 0.0
07/10:30pm 19.0 11.4 0.4 28 8.6 W 30 32 16 17 1017.5 - 0.0
07/10:20pm 19.4 12.1 0.3 27 8.8 W 28 30 15 16 1017.5 - 0.0
07/10:10pm 19.7 12.4 0.2 27 9.0 W 28 33 15 18 1017.4 - 0.0
07/10:00pm 19.7 13.6 0.1 27 9.0 W 22 24 12 13 1017.4 - 0.0
07/09:50pm 19.9 13.8 0.1 26 9.1 W 22 24 12 13 1017.4 - 0.0
07/09:40pm 20.2 13.3 0.0 26 9.3 W 26 28 14 15 1017.3 - 0.0
07/09:30pm 20.4 13.5 -0.1 25 9.4 W 26 35 14 19 1017.2 - 0.0
07/09:20pm 20.6 11.6 -0.2 25 9.6 W 37 41 20 22 1016.9 - 0.0
07/09:10pm 20.8 11.0 -0.5 24 9.8 W 41 46 22 25 1016.6 - 0.0
07/09:00pm 21.1 11.6 -0.6 23 10.0 W 39 43 21 23 1016.5 - 0.0
07/08:50pm 21.1 12.7 -0.7 23 10.0 W 33 37 18 20 1016.5 - 0.0
07/08:40pm 21.3 12.9 -0.8 23 10.1 W 33 35 18 19 1016.5 - 0.0
07/08:30pm 21.5 12.8 -0.8 22 10.2 W 35 41 19 22 1016.3 - 0.0
07/08:20pm 21.7 13.5 -1.1 21 10.4 W 32 37 17 20 1016.3 - 0.0
07/08:10pm 21.9 13.5 -1.2 21 10.5 W 33 39 18 21 1016.1 - 0.0
07/08:00pm 22.1 13.7 -1.1 21 10.6 W 33 35 18 19 1016.0 - 0.0
07/07:50pm 22.6 15.1 -1.4 20 11.0 W 28 32 15 17 1016.1 - 0.0
07/07:40pm 23.0 15.1 -1.8 19 11.3 W 30 33 16 18 1016.1 - 0.0
07/07:30pm 23.3 16.5 -1.5 19 11.4 W 24 28 13 15 1015.9 - 0.0
07/07:20pm 23.4 15.1 -1.5 19 11.4 W 32 43 17 23 1015.6 - 0.0
07/07:10pm 23.5 14.3 -1.7 18 11.5 W 37 46 20 25 1015.4 - 0.0
07/07:00pm 23.6 14.7 -1.6 18 11.6 WNW 35 44 19 24 1015.2 - 0.0
07/06:50pm 23.7 13.1 -1.6 18 11.6 WNW 44 48 24 26 1014.7 - 0.0
07/06:40pm 23.9 13.9 -1.6 18 11.7 WNW 41 46 22 25 1014.5 - 0.0

Latest Capital City Observations: Canberra | Sydney | Melbourne | Brisbane | Adelaide | Perth | Hobart | Darwin

Other formats

Comma delimited format used in spreadsheet applications
http://www.bom.gov.au/fwo/IDN60903/IDN60903.99763.axf

JavaScript Object Notation format (JSON) in row-major order
http://www.bom.gov.au/fwo/IDN60903/IDN60903.99763.json

Data quality

Most of these data are generated automatically and are frequently updated. Quality checks on data are not normally performed. It is possible for incorrect values to appear. Refer to information at About Latest Weather Observations and please check the disclaimer before using these data.